Terminal Aerodrome Forecast
Issued by NWS Cleveland, OH

Home | Current Version | Previous Version | Text Only | Print | Product List | Glossary Off
Versions: 1 2 3 4 5 6 7 8 9 10 11 12 13 14 15 16 17 18 19 20 21 22 23

000
FTUS41 KCLE 280536
TAFMFD
TAF
KMFD 280536Z 2806/2906 30014G22KT 2SM -RA BR OVC003
      TEMPO 2806/2810 1SM -RA BR
     FM281200 30014G22KT 5SM BR VCSH OVC006
     FM281500 31012G20KT P6SM OVC015
     FM282200 31012KT P6SM BKN050
     FM290000 VRB04KT P6SM SKC=

USA.gov is the U.S. government's official web portal to all federal, state and local government web resources and services.